Blissfield, Ohio
Current Conditions -  °F | °C
As of 3:56 PM on Thursday 20 Nov 2014 (Local Time) from K4I3 Reporting Station
Clear Clear  
Wind Chill: 17°   Ceiling: Unl
Heat Index: 27°   Visibility: 10mi
Dew Point: 12°   Wind: 10mph
Humidity: 55%   Direction: 250°WSW
Pressure: 30.04"   Gusts: 21mph
Location:  40.4°N, 81.97°W
Report Text: K4I3 202056Z AUTO 25009G18KT 10SM CLR M03/M11 A3004 RMK AO2
Loading
Personal Weather Stations






























Interactive Weather Map New forecast layout! Learn more

10-Day Weather Forecast

Advertisements
Track Severe Weather on mobile